Lufkin, TX (75901)

3:49 PM CDT on August 27, 2016 (GMT -0500)
Woodhaven | | Change Station

Elev 335 ft 31.30 °N, 94.70 °W | Updated 24 seconds ago

Scattered Clouds
Scattered Clouds
84.9 °F
Feels Like 96 °F
N
0.0
Wind Variable Wind from NE
Gusts 0.0 mph

Today
High -- | Low -- °F
--% Chance of Precip.
Yesterday
High -- | Low -- °F
Precip. -- in
Pressure 29.95 in
Visibility 10.0 miles
Clouds Scattered Clouds 10000 ft
Heat Index 96 °F
Dew Point 78 °F
Humidity 79%
Rainfall 0.00 in
Snow Depth Not available.
6:52 AM 7:47 PM
Waning Crescent, 21% visible
METAR KLFK 271953Z AUTO 00000KT 10SM SCT100 27/23 A2996 RMK AO2 RAB1855E40 SLP140 P0020 T02670233
Pressure 29.95 in
Visibility 10.0 miles
Clouds Scattered Clouds 10000 ft
Heat Index 96 °F
Dew Point 78 °F
Humidity 79%
Rainfall 0.00 in
Snow Depth Not available.
6:52 AM 7:47 PM
Waning Crescent, 21% visible
METAR KLFK 271953Z AUTO 00000KT 10SM SCT100 27/23 A2996 RMK AO2 RAB1855E40 SLP140 P0020 T02670233

10-Day Weather Forecast

Almanac

Astronomy

Aug. 27, 2016 Rise Set
Actual Time
Civil Twilight
Nautical Twilight
Astronomical Twilight
Moon
Length of Visible Light
Length of Day
Tomorrow will be .
, % of the Moon is Illuminated

Today's Extremes

State Highs State Lows

Community

WunderPhotos

Upload Photos

1,935,438 photos uploaded!

WunderBlog® & News

Nearby

Air Quality

  Air Quality AQ Index Pollutant
Not available.

Snow Depth

Station Depth Elevation

Earthquake Activity

City Distance Mag. Time & Date
Minimum magnitude displayed is 2.5.

Coastal Water Temperatures

Place Temperature

Stations

Nearby Weather Stations

Station Location Temp. Windchill Dew Point Humidity Wind Precip. Elev Updated Type
                   

Watches & Warnings

There are currently no watches in effect.